createdAt,value
2018-07-19T00:00:45.010Z,99.90
2018-07-19T00:03:10.985Z,99.90
2018-07-19T00:05:38.128Z,99.90
2018-07-19T00:08:04.878Z,99.90
2018-07-19T00:10:30.810Z,99.90
2018-07-19T00:12:56.793Z,99.90
2018-07-19T00:15:22.746Z,99.90
2018-07-19T00:17:48.734Z,99.90
2018-07-19T00:20:14.677Z,99.90
2018-07-19T00:22:41.362Z,99.90
2018-07-19T00:25:07.353Z,99.90
2018-07-19T00:27:34.026Z,99.90
2018-07-19T00:30:00.011Z,99.90
2018-07-19T00:32:26.727Z,99.90
2018-07-19T00:34:52.697Z,99.90
2018-07-19T00:37:18.663Z,99.90
2018-07-19T00:39:44.775Z,99.90
2018-07-19T00:42:10.716Z,99.90
2018-07-19T00:44:36.649Z,99.90
2018-07-19T00:47:02.618Z,99.90
2018-07-19T00:49:28.571Z,99.90
2018-07-19T00:51:54.523Z,99.90
2018-07-19T00:54:20.479Z,99.90
2018-07-19T00:56:46.447Z,99.90
2018-07-19T00:59:12.388Z,99.90
2018-07-19T01:01:39.100Z,99.90
2018-07-19T01:04:05.066Z,99.90
2018-07-19T01:06:31.778Z,99.90
2018-07-19T01:08:57.699Z,99.90
2018-07-19T01:11:23.650Z,99.90
2018-07-19T01:13:50.349Z,99.90
2018-07-19T01:16:16.291Z,99.90
2018-07-19T01:18:43.016Z,99.90
2018-07-19T01:21:08.952Z,99.90
2018-07-19T01:23:34.925Z,99.90
2018-07-19T01:26:00.854Z,99.90
2018-07-19T01:28:26.806Z,99.90
2018-07-19T01:30:52.773Z,99.90
2018-07-19T01:33:18.720Z,99.90
2018-07-19T01:35:44.679Z,99.90
2018-07-19T01:38:10.621Z,99.90
2018-07-19T01:40:37.319Z,99.90
2018-07-19T01:43:03.274Z,99.90
2018-07-19T01:45:29.206Z,99.90
2018-07-19T01:47:55.920Z,99.90
2018-07-19T01:50:21.865Z,99.90
2018-07-19T01:52:48.578Z,99.90
2018-07-19T01:55:14.537Z,99.90
2018-07-19T01:57:41.267Z,99.90
2018-07-19T02:00:07.977Z,99.90
2018-07-19T02:02:33.913Z,99.90
2018-07-19T02:04:59.889Z,99.90
2018-07-19T02:07:25.839Z,99.90
2018-07-19T02:09:51.813Z,99.90
2018-07-19T02:12:17.774Z,99.90
2018-07-19T02:14:43.735Z,99.90
2018-07-19T02:17:09.668Z,99.90
2018-07-19T02:19:36.360Z,99.90
2018-07-19T02:22:02.327Z,99.90
2018-07-19T02:24:28.310Z,99.90
2018-07-19T02:26:54.284Z,99.90
2018-07-19T02:29:20.978Z,99.90
2018-07-19T02:31:46.958Z,99.90
2018-07-19T02:34:12.917Z,99.90
2018-07-19T02:36:38.886Z,99.90
2018-07-19T02:39:05.563Z,99.90
2018-07-19T02:41:31.519Z,99.90
2018-07-19T02:43:57.512Z,99.90
2018-07-19T02:46:23.449Z,99.90
2018-07-19T02:48:49.454Z,99.90
2018-07-19T02:51:15.393Z,99.90
2018-07-19T02:53:41.377Z,99.90
2018-07-19T02:56:07.349Z,99.90
2018-07-19T02:58:33.321Z,99.90
2018-07-19T03:00:59.274Z,99.90
2018-07-19T03:03:25.235Z,99.90
2018-07-19T03:05:51.208Z,99.90
2018-07-19T03:08:17.191Z,99.90
2018-07-19T03:10:43.142Z,99.90
2018-07-19T03:13:09.103Z,99.90
2018-07-19T03:15:35.071Z,99.90
2018-07-19T03:18:01.766Z,99.90
2018-07-19T03:20:27.760Z,99.90
2018-07-19T03:22:53.715Z,99.90
2018-07-19T03:25:19.656Z,99.90
2018-07-19T03:27:46.381Z,99.90
2018-07-19T03:30:12.321Z,99.90
2018-07-19T03:32:38.301Z,99.90
2018-07-19T03:35:04.232Z,99.90
2018-07-19T03:37:30.204Z,99.90
2018-07-19T03:39:56.911Z,99.90
2018-07-19T03:42:22.884Z,99.90
2018-07-19T03:44:48.865Z,99.90
2018-07-19T03:47:14.832Z,99.90
2018-07-19T03:49:40.794Z,99.90
2018-07-19T03:52:06.741Z,99.90
2018-07-19T03:54:32.705Z,99.90
2018-07-19T03:56:58.657Z,99.90
2018-07-19T03:59:24.624Z,99.90
2018-07-19T04:01:50.606Z,99.90
2018-07-19T04:04:16.563Z,99.90
2018-07-19T04:06:43.293Z,99.90
2018-07-19T04:09:09.254Z,99.90
2018-07-19T04:11:35.220Z,99.90
2018-07-19T04:14:01.176Z,99.90
2018-07-19T04:16:27.122Z,99.90
2018-07-19T04:18:53.048Z,99.90
2018-07-19T04:21:19.014Z,99.90
2018-07-19T04:23:44.964Z,99.90
2018-07-19T04:26:11.680Z,99.90
2018-07-19T04:28:37.633Z,99.90
2018-07-19T04:31:04.323Z,99.90
2018-07-19T04:33:30.268Z,99.90
2018-07-19T04:35:56.202Z,99.90
2018-07-19T04:38:23.019Z,99.90
2018-07-19T04:40:49.661Z,99.90
2018-07-19T04:43:15.638Z,99.90
2018-07-19T04:45:41.605Z,99.90
2018-07-19T04:48:07.591Z,99.90
2018-07-19T04:50:33.545Z,99.90
2018-07-19T04:52:59.488Z,99.90
2018-07-19T04:55:26.204Z,99.90
2018-07-19T04:57:52.142Z,99.90
2018-07-19T05:00:18.115Z,99.90
2018-07-19T05:02:44.095Z,99.90
2018-07-19T05:05:10.824Z,99.90
2018-07-19T05:07:36.803Z,99.90
2018-07-19T05:10:02.802Z,99.90
2018-07-19T05:12:29.515Z,99.90
2018-07-19T05:14:55.484Z,99.90
2018-07-19T05:17:21.476Z,99.90
2018-07-19T05:19:47.427Z,99.90
2018-07-19T05:22:13.409Z,99.90
2018-07-19T05:24:39.364Z,99.90
2018-07-19T05:27:06.080Z,99.90
2018-07-19T05:29:32.768Z,99.90
2018-07-19T05:31:58.701Z,99.90
2018-07-19T05:34:24.679Z,99.90
2018-07-19T05:36:51.365Z,99.90
2018-07-19T05:39:17.362Z,99.90
2018-07-19T05:41:43.313Z,99.90
2018-07-19T05:44:09.300Z,99.90
2018-07-19T05:46:35.257Z,99.90
2018-07-19T05:49:01.220Z,99.90
2018-07-19T05:51:27.917Z,99.90
2018-07-19T05:53:53.885Z,99.90
2018-07-19T05:56:20.605Z,99.90
2018-07-19T05:58:46.540Z,99.90
2018-07-19T06:01:12.506Z,99.90
2018-07-19T06:03:38.445Z,99.90
2018-07-19T06:06:04.424Z,99.90
2018-07-19T06:08:31.118Z,99.90
2018-07-19T06:10:57.104Z,99.90
2018-07-19T06:13:23.074Z,99.90
2018-07-19T06:15:49.079Z,99.90
2018-07-19T06:18:15.040Z,99.90
2018-07-19T06:20:41.750Z,99.90
2018-07-19T06:23:07.729Z,99.90
2018-07-19T06:25:33.695Z,99.90
2018-07-19T06:27:59.677Z,99.90
2018-07-19T06:30:25.617Z,99.90
2018-07-19T06:32:51.590Z,99.90
2018-07-19T06:35:17.555Z,99.90
2018-07-19T06:37:43.524Z,99.90
2018-07-19T06:40:09.607Z,99.90
2018-07-19T06:42:35.559Z,99.90
2018-07-19T06:45:01.540Z,99.90
2018-07-19T06:47:27.483Z,99.90
2018-07-19T06:49:53.452Z,99.90
2018-07-19T06:52:20.191Z,99.90
2018-07-19T06:54:46.151Z,99.90
2018-07-19T06:57:12.126Z,99.90
2018-07-19T06:59:38.105Z,99.90
2018-07-19T07:02:04.100Z,99.90
2018-07-19T07:04:30.077Z,99.90
2018-07-19T07:06:56.069Z,99.90
2018-07-19T07:09:22.018Z,99.90
2018-07-19T07:11:47.966Z,99.90
2018-07-19T07:14:13.960Z,99.90
2018-07-19T07:16:39.885Z,99.90
2018-07-19T07:19:05.868Z,99.90
2018-07-19T07:21:31.836Z,99.90
2018-07-19T07:23:57.813Z,99.90
2018-07-19T07:26:24.493Z,99.90
2018-07-19T07:28:50.496Z,99.90
2018-07-19T07:31:16.443Z,99.90
2018-07-19T07:33:42.384Z,99.90
2018-07-19T07:36:09.096Z,99.90
2018-07-19T07:38:35.078Z,99.90
2018-07-19T07:41:01.797Z,99.90
2018-07-19T07:43:27.767Z,99.90
2018-07-19T07:45:53.737Z,99.90
2018-07-19T07:48:19.699Z,99.90
2018-07-19T07:50:45.661Z,99.90
2018-07-19T07:53:11.649Z,99.90
2018-07-19T07:55:37.597Z,99.90
2018-07-19T07:58:03.593Z,99.90
2018-07-19T08:00:29.575Z,99.90
2018-07-19T08:02:56.285Z,99.90
2018-07-19T08:05:22.247Z,99.90
2018-07-19T08:07:48.960Z,99.90
2018-07-19T08:10:14.916Z,99.90
2018-07-19T08:12:41.632Z,99.90
2018-07-19T08:15:07.607Z,99.90
2018-07-19T08:17:33.586Z,99.90
2018-07-19T08:19:59.575Z,99.90
2018-07-19T08:22:25.551Z,99.90
2018-07-19T08:24:52.263Z,99.30
2018-07-19T08:27:18.222Z,99.20
2018-07-19T08:29:44.903Z,99.40
2018-07-19T08:32:10.888Z,99.30
2018-07-19T08:34:37.576Z,98.80
2018-07-19T08:37:03.549Z,98.80
2018-07-19T08:39:29.495Z,96.00
2018-07-19T08:41:55.478Z,95.90
2018-07-19T08:44:21.430Z,94.30
2018-07-19T08:46:47.437Z,91.20
2018-07-19T08:49:13.402Z,91.30
2018-07-19T08:51:39.426Z,89.80
2018-07-19T08:54:05.307Z,90.00
2018-07-19T08:56:31.315Z,90.90
2018-07-19T08:58:57.242Z,88.70
2018-07-19T09:01:23.944Z,80.30
2018-07-19T09:03:49.932Z,80.20
2018-07-19T09:06:15.859Z,77.30
2018-07-19T09:08:41.834Z,76.20
2018-07-19T09:11:07.780Z,70.70
2018-07-19T09:13:34.459Z,63.40
2018-07-19T09:16:00.418Z,63.30
2018-07-19T09:18:26.367Z,60.10
2018-07-19T09:20:52.363Z,56.90
2018-07-19T09:23:18.307Z,58.00
2018-07-19T09:25:45.014Z,59.10
2018-07-19T09:28:10.999Z,59.10
2018-07-19T09:30:36.965Z,58.40
2018-07-19T09:33:02.935Z,61.20
2018-07-19T09:35:28.926Z,60.50
2018-07-19T09:37:55.634Z,58.90
2018-07-19T09:40:21.586Z,58.80
2018-07-19T09:42:47.535Z,51.90
2018-07-19T09:45:13.491Z,50.70
2018-07-19T09:47:39.467Z,53.70
2018-07-19T09:50:06.140Z,53.80
2018-07-19T09:52:32.125Z,53.80
2018-07-19T09:54:58.814Z,55.10
2018-07-19T09:57:24.816Z,55.10
2018-07-19T09:59:50.771Z,55.40
2018-07-19T10:02:16.763Z,56.40
2018-07-19T10:04:42.723Z,56.80
2018-07-19T10:07:08.672Z,54.50
2018-07-19T10:09:34.639Z,52.70
2018-07-19T10:12:00.603Z,50.60
2018-07-19T10:14:26.629Z,49.40
2018-07-19T10:16:52.597Z,51.90
2018-07-19T10:19:18.570Z,54.60
2018-07-19T10:21:44.492Z,54.40
2018-07-19T10:24:10.485Z,53.00
2018-07-19T10:26:36.509Z,55.70
2018-07-19T10:29:03.191Z,51.10
2018-07-19T10:31:29.894Z,52.60
2018-07-19T10:33:56.607Z,52.40
2018-07-19T10:36:22.572Z,52.30
2018-07-19T10:38:48.546Z,53.10
2018-07-19T10:41:14.507Z,51.50
2018-07-19T10:43:40.455Z,53.60
2018-07-19T10:46:07.229Z,52.60
2018-07-19T10:48:33.148Z,52.50
2018-07-19T10:50:59.863Z,54.20
2018-07-19T10:53:25.833Z,54.10
2018-07-19T10:55:51.759Z,51.20
2018-07-19T10:58:17.714Z,53.70
2018-07-19T11:00:43.639Z,52.60
2018-07-19T11:03:09.593Z,52.00
2018-07-19T11:05:36.273Z,53.50
2018-07-19T11:08:02.198Z,53.60
2018-07-19T11:10:28.159Z,55.70
2018-07-19T11:12:54.082Z,53.00
2018-07-19T11:15:20.074Z,52.50
2018-07-19T11:17:46.009Z,51.70
2018-07-19T11:20:11.976Z,51.40
2018-07-19T11:22:38.675Z,53.40
2018-07-19T11:25:04.678Z,52.40
2018-07-19T11:27:30.655Z,52.70
2018-07-19T11:29:57.352Z,49.80
2018-07-19T11:32:23.344Z,49.80
2018-07-19T11:34:49.300Z,50.50
2018-07-19T11:37:15.243Z,49.40
2018-07-19T11:39:41.180Z,48.00
2018-07-19T11:42:07.876Z,49.40
2018-07-19T11:44:33.817Z,49.40
2018-07-19T11:46:59.758Z,50.80
2018-07-19T11:49:25.731Z,51.60
2018-07-19T11:51:51.676Z,50.60
2018-07-19T11:54:17.636Z,52.20
2018-07-19T11:56:44.317Z,49.30
2018-07-19T11:59:10.328Z,49.30
2018-07-19T12:01:36.259Z,49.60
2018-07-19T12:04:02.202Z,50.70
2018-07-19T12:06:28.146Z,49.60
2018-07-19T12:08:54.844Z,49.70
2018-07-19T12:11:20.816Z,49.60
2018-07-19T12:13:46.763Z,50.20
2018-07-19T12:16:13.475Z,52.30
2018-07-19T12:18:39.399Z,52.30
2018-07-19T12:21:05.374Z,50.50
2018-07-19T12:23:31.319Z,53.20
2018-07-19T12:25:57.280Z,51.10
2018-07-19T12:28:24.002Z,51.50
2018-07-19T12:30:50.720Z,51.20
2018-07-19T12:33:16.677Z,51.20
2018-07-19T12:35:43.361Z,50.10
2018-07-19T12:38:09.337Z,50.10
2018-07-19T12:40:35.336Z,51.90
2018-07-19T12:43:01.326Z,54.90
2018-07-19T12:45:27.259Z,53.20
2018-07-19T12:47:53.196Z,53.50
2018-07-19T12:50:19.140Z,53.20
2018-07-19T12:52:45.070Z,53.10
2018-07-19T12:55:11.033Z,51.90
2018-07-19T12:57:36.982Z,51.80
2018-07-19T13:00:02.975Z,53.20
2018-07-19T13:02:28.933Z,53.30
2018-07-19T13:04:54.887Z,54.00
2018-07-19T13:07:21.581Z,53.30
2018-07-19T13:09:47.508Z,52.80
2018-07-19T13:12:13.451Z,53.20
2018-07-19T13:14:39.363Z,52.10
2018-07-19T13:17:05.326Z,52.20
2018-07-19T13:19:32.000Z,53.50
2018-07-19T13:21:58.009Z,53.50
2018-07-19T13:24:23.948Z,49.90
2018-07-19T13:26:49.917Z,51.10
2018-07-19T13:29:15.865Z,50.60
2018-07-19T13:31:41.815Z,52.90
2018-07-19T13:34:07.766Z,51.20
2018-07-19T13:36:33.799Z,53.10
2018-07-19T13:38:59.704Z,52.80
2018-07-19T13:41:25.672Z,51.70
2018-07-19T13:43:51.640Z,52.90
2018-07-19T13:46:17.601Z,52.10
2018-07-19T13:48:43.559Z,51.60
2018-07-19T13:51:09.494Z,51.10
2018-07-19T13:53:35.468Z,52.20
2018-07-19T13:56:01.409Z,54.30
2018-07-19T13:58:28.100Z,53.70
2018-07-19T14:00:54.043Z,53.70
2018-07-19T14:03:20.002Z,54.20
2018-07-19T14:05:46.655Z,53.40
2018-07-19T14:08:12.605Z,53.40
2018-07-19T14:10:38.570Z,54.60
2018-07-19T14:13:05.233Z,53.20
2018-07-19T14:15:31.234Z,53.10
2018-07-19T14:17:57.927Z,54.10
2018-07-19T14:20:23.934Z,54.20
2018-07-19T14:22:49.869Z,52.60
2018-07-19T14:25:15.845Z,54.60
2018-07-19T14:27:42.525Z,53.70
2018-07-19T14:30:15.396Z,53.70
2018-07-19T14:32:41.348Z,54.40
2018-07-19T14:35:07.267Z,54.10
2018-07-19T14:37:33.234Z,53.50
2018-07-19T14:39:59.197Z,54.50
2018-07-19T14:42:25.187Z,53.90
2018-07-19T14:44:51.864Z,53.50
2018-07-19T14:47:17.818Z,53.40
2018-07-19T14:49:43.776Z,55.20
2018-07-19T14:52:10.478Z,53.30
2018-07-19T14:54:36.405Z,53.20
2018-07-19T14:57:02.333Z,52.90
2018-07-19T14:59:29.036Z,54.70
2018-07-19T15:01:54.975Z,54.70
2018-07-19T15:04:20.938Z,53.80
2018-07-19T15:06:47.618Z,53.50
2018-07-19T15:09:13.567Z,53.40
2018-07-19T15:11:39.489Z,53.10
2018-07-19T15:14:05.450Z,53.70
2018-07-19T15:16:31.373Z,53.50
2018-07-19T15:18:57.313Z,53.10
2018-07-19T15:21:23.254Z,53.30
2018-07-19T15:23:49.191Z,53.40
2018-07-19T15:26:15.159Z,54.60
2018-07-19T15:28:41.808Z,54.00
2018-07-19T15:31:07.769Z,53.90
2018-07-19T15:33:33.725Z,55.60
2018-07-19T15:36:00.391Z,58.30
2018-07-19T15:38:27.109Z,58.60
2018-07-19T15:40:53.777Z,60.20
2018-07-19T15:43:19.741Z,60.10
2018-07-19T15:45:45.700Z,61.30
2018-07-19T15:48:12.403Z,62.10
2018-07-19T15:50:38.329Z,62.10
2018-07-19T15:53:04.278Z,63.20
2018-07-19T15:55:31.009Z,63.00
2018-07-19T15:57:56.894Z,63.00
2018-07-19T16:00:22.871Z,63.50
2018-07-19T16:02:48.826Z,64.30
2018-07-19T16:05:14.786Z,66.30
2018-07-19T16:07:41.480Z,68.50
2018-07-19T16:10:07.423Z,68.50
2018-07-19T16:12:33.398Z,69.10
2018-07-19T16:15:00.080Z,70.50
2018-07-19T16:17:26.045Z,70.50
2018-07-19T16:19:52.745Z,70.70
2018-07-19T16:22:18.694Z,70.70
2018-07-19T16:24:44.654Z,71.40
2018-07-19T16:27:10.625Z,71.80
2018-07-19T16:29:36.563Z,71.50
2018-07-19T16:32:02.524Z,72.50
2018-07-19T16:34:28.457Z,72.20
2018-07-19T16:36:54.400Z,72.90
2018-07-19T16:39:20.356Z,73.30
2018-07-19T16:41:47.062Z,73.90
2018-07-19T16:44:13.021Z,73.90
2018-07-19T16:46:38.945Z,74.40
2018-07-19T16:49:05.663Z,74.70
2018-07-19T16:51:31.592Z,74.70
2018-07-19T16:53:57.575Z,74.50
2018-07-19T16:56:23.522Z,74.60
2018-07-19T16:58:49.451Z,75.00
2018-07-19T17:01:15.413Z,75.60
2018-07-19T17:03:42.104Z,76.90
2018-07-19T17:06:08.077Z,76.80
2018-07-19T17:08:34.028Z,78.10
2018-07-19T17:10:59.993Z,78.80
2018-07-19T17:13:25.976Z,79.50
2018-07-19T17:15:51.980Z,80.00
2018-07-19T17:18:17.955Z,80.40
2018-07-19T17:20:43.923Z,80.20
2018-07-19T17:23:09.859Z,80.90
2018-07-19T17:25:35.790Z,81.20
2018-07-19T17:28:01.745Z,81.80
2018-07-19T17:30:27.727Z,82.30
2018-07-19T17:32:53.684Z,82.50
2018-07-19T17:35:19.615Z,82.80
2018-07-19T17:37:45.560Z,83.20
2018-07-19T17:40:12.271Z,83.50
2018-07-19T17:42:38.213Z,83.40
2018-07-19T17:45:04.163Z,84.00
2018-07-19T17:47:30.132Z,84.20
2018-07-19T17:49:56.075Z,84.40
2018-07-19T17:52:21.999Z,84.70
2018-07-19T17:54:47.946Z,84.70
2018-07-19T17:57:13.892Z,85.10
2018-07-19T17:59:39.865Z,85.80
2018-07-19T18:02:05.793Z,86.20
2018-07-19T18:04:31.739Z,86.40
2018-07-19T18:06:57.674Z,86.40
2018-07-19T18:09:23.598Z,87.20
2018-07-19T18:11:49.542Z,87.10
2018-07-19T18:14:15.474Z,86.60
2018-07-19T18:16:41.521Z,87.60
2018-07-19T18:19:07.454Z,87.90
2018-07-19T18:21:34.156Z,88.50
2018-07-19T18:24:00.108Z,88.40
2018-07-19T18:26:26.799Z,88.70
2018-07-19T18:28:52.738Z,88.60
2018-07-19T18:31:18.707Z,88.80
2018-07-19T18:33:44.682Z,89.10
2018-07-19T18:36:10.605Z,89.20
2018-07-19T18:38:36.581Z,89.40
2018-07-19T18:41:02.509Z,89.30
2018-07-19T18:43:28.486Z,89.70
2018-07-19T18:45:54.476Z,89.80
2018-07-19T18:48:21.192Z,90.10
2018-07-19T18:50:47.135Z,90.10
2018-07-19T18:53:13.102Z,90.30
2018-07-19T18:55:39.022Z,90.30
2018-07-19T18:58:05.707Z,90.80
2018-07-19T19:00:31.653Z,90.80
2018-07-19T19:02:58.356Z,91.00
2018-07-19T19:05:24.306Z,91.00
2018-07-19T19:07:50.657Z,91.30
2018-07-19T19:10:17.504Z,91.60
2018-07-19T19:12:43.531Z,92.10
2018-07-19T19:15:09.483Z,92.60
2018-07-19T19:17:35.388Z,93.00
2018-07-19T19:20:01.362Z,93.30
2018-07-19T19:22:27.425Z,93.90
2018-07-19T19:24:54.193Z,94.50
2018-07-19T19:27:20.921Z,94.00
2018-07-19T19:29:46.871Z,94.00
2018-07-19T19:32:13.666Z,94.00
2018-07-19T19:34:39.614Z,94.00
2018-07-19T19:37:05.780Z,93.80
2018-07-19T19:39:31.769Z,93.50
2018-07-19T19:41:57.691Z,93.30
2018-07-19T19:44:24.392Z,93.30
2018-07-19T19:46:50.317Z,93.20
2018-07-19T19:49:16.283Z,93.00
2018-07-19T19:51:42.963Z,92.90
2018-07-19T19:54:08.903Z,92.90
2018-07-19T19:56:34.862Z,93.20
2018-07-19T19:59:00.819Z,92.80
2018-07-19T20:01:26.769Z,93.00
2018-07-19T20:03:52.692Z,92.90
2018-07-19T20:06:18.664Z,93.30
2018-07-19T20:08:45.337Z,93.50
2018-07-19T20:11:11.585Z,93.50
2018-07-19T20:13:38.560Z,94.00
2018-07-19T20:16:04.812Z,94.00
2018-07-19T20:18:30.810Z,94.30
2018-07-19T20:20:57.721Z,94.70
2018-07-19T20:23:23.959Z,94.70
2018-07-19T20:25:50.176Z,94.80
2018-07-19T20:28:16.938Z,95.30
2018-07-19T20:30:42.878Z,95.20
2018-07-19T20:33:08.807Z,95.50
2018-07-19T20:35:35.507Z,96.00
2018-07-19T20:38:01.596Z,96.00
2018-07-19T20:40:27.622Z,96.20
2018-07-19T20:42:53.579Z,96.50
2018-07-19T20:45:19.545Z,96.90
2018-07-19T20:47:46.243Z,97.50
2018-07-19T20:50:12.212Z,97.50
2018-07-19T20:52:38.872Z,98.30
2018-07-19T20:55:04.948Z,98.30
2018-07-19T20:57:30.980Z,98.70
2018-07-19T20:59:57.660Z,99.30
2018-07-19T21:02:23.613Z,99.30
2018-07-19T21:04:49.578Z,99.70
2018-07-19T21:07:15.639Z,99.90
2018-07-19T21:09:41.641Z,99.90
2018-07-19T21:12:07.661Z,99.90
2018-07-19T21:14:33.599Z,99.90
2018-07-19T21:16:59.542Z,99.90
2018-07-19T21:19:25.646Z,99.90
2018-07-19T21:21:51.588Z,99.90
2018-07-19T21:24:17.557Z,99.90
2018-07-19T21:26:44.235Z,99.90
2018-07-19T21:29:10.223Z,99.90
2018-07-19T21:31:36.914Z,99.90
2018-07-19T21:34:02.905Z,99.90
2018-07-19T21:36:28.858Z,99.90
2018-07-19T21:38:54.817Z,99.90
2018-07-19T21:41:20.858Z,99.90
2018-07-19T21:43:47.549Z,99.90
2018-07-19T21:46:13.502Z,99.90
2018-07-19T21:48:39.418Z,99.90
2018-07-19T21:51:05.357Z,99.90
2018-07-19T21:53:31.302Z,99.90
2018-07-19T21:55:57.272Z,99.90
2018-07-19T21:58:23.223Z,99.90
2018-07-19T22:00:49.898Z,99.90
2018-07-19T22:03:15.856Z,99.90
2018-07-19T22:05:41.794Z,99.90
2018-07-19T22:08:07.757Z,99.90
2018-07-19T22:10:33.687Z,99.90
2018-07-19T22:12:59.655Z,99.90
2018-07-19T22:15:25.588Z,99.90
2018-07-19T22:17:51.565Z,99.90
2018-07-19T22:20:17.480Z,99.90
2018-07-19T22:22:43.457Z,99.90
2018-07-19T22:25:09.412Z,99.90
2018-07-19T22:27:35.340Z,99.90
2018-07-19T22:30:01.287Z,99.90
2018-07-19T22:32:27.222Z,99.90
2018-07-19T22:34:53.210Z,99.90
2018-07-19T22:37:19.130Z,99.90
2018-07-19T22:39:45.051Z,99.90
2018-07-19T22:42:11.001Z,99.90
2018-07-19T22:44:36.933Z,99.90
2018-07-19T22:47:02.886Z,99.90
2018-07-19T22:49:29.571Z,99.90
2018-07-19T22:51:55.540Z,99.90
2018-07-19T22:54:22.239Z,99.90
2018-07-19T22:56:48.195Z,99.90
2018-07-19T22:59:14.128Z,99.90
2018-07-19T23:01:40.866Z,99.90
2018-07-19T23:04:07.554Z,99.90
2018-07-19T23:06:33.479Z,99.90
2018-07-19T23:08:59.434Z,99.90
2018-07-19T23:11:25.377Z,99.90
2018-07-19T23:13:52.095Z,99.90
2018-07-19T23:16:18.032Z,99.90
2018-07-19T23:18:43.990Z,99.90
2018-07-19T23:21:09.919Z,99.90
2018-07-19T23:23:35.902Z,99.90
2018-07-19T23:26:01.823Z,99.90
2018-07-19T23:28:27.771Z,99.90
2018-07-19T23:30:54.470Z,99.90
2018-07-19T23:33:20.424Z,99.90
2018-07-19T23:35:47.119Z,99.90
2018-07-19T23:38:13.061Z,99.90
2018-07-19T23:40:39.016Z,99.90
2018-07-19T23:43:05.712Z,99.90
2018-07-19T23:45:31.663Z,99.90
2018-07-19T23:47:58.320Z,99.90
2018-07-19T23:50:24.274Z,99.90
2018-07-19T23:52:50.237Z,99.90
2018-07-19T23:55:16.185Z,99.90
2018-07-19T23:57:42.861Z,99.90
